sensor_id;sensor_type;location;lat;lon;timestamp;P1;durP1;ratioP1;P2;durP2;ratioP2
51949;SDS011;37974;53.218;6.640;2023-04-28T00:02:06;10.65;;;6.95;;
51949;SDS011;37974;53.218;6.640;2023-04-28T00:04:32;10.35;;;7.45;;
51949;SDS011;37974;53.218;6.640;2023-04-28T00:06:57;11.55;;;7.18;;
51949;SDS011;37974;53.218;6.640;2023-04-28T00:09:23;14.88;;;8.43;;
51949;SDS011;37974;53.218;6.640;2023-04-28T00:11:49;13.02;;;9.30;;
51949;SDS011;37974;53.218;6.640;2023-04-28T00:14:16;9.95;;;7.57;;
51949;SDS011;37974;53.218;6.640;2023-04-28T00:16:41;12.95;;;7.75;;
51949;SDS011;37974;53.218;6.640;2023-04-28T00:19:07;10.93;;;8.18;;
51949;SDS011;37974;53.218;6.640;2023-04-28T00:21:33;12.48;;;8.82;;
51949;SDS011;37974;53.218;6.640;2023-04-28T00:23:58;10.65;;;7.97;;
51949;SDS011;37974;53.218;6.640;2023-04-28T00:26:24;13.85;;;8.40;;
51949;SDS011;37974;53.218;6.640;2023-04-28T00:28:50;12.93;;;8.48;;
51949;SDS011;37974;53.218;6.640;2023-04-28T00:31:15;11.27;;;8.05;;
51949;SDS011;37974;53.218;6.640;2023-04-28T00:33:42;10.90;;;8.32;;
51949;SDS011;37974;53.218;6.640;2023-04-28T00:36:08;13.05;;;8.35;;
51949;SDS011;37974;53.218;6.640;2023-04-28T00:38:35;13.32;;;7.80;;
51949;SDS011;37974;53.218;6.640;2023-04-28T00:41:01;12.45;;;8.07;;
51949;SDS011;37974;53.218;6.640;2023-04-28T00:43:26;13.45;;;8.30;;
51949;SDS011;37974;53.218;6.640;2023-04-28T00:45:52;9.48;;;7.70;;
51949;SDS011;37974;53.218;6.640;2023-04-28T00:48:18;11.95;;;8.18;;
51949;SDS011;37974;53.218;6.640;2023-04-28T00:50:44;12.32;;;8.10;;
51949;SDS011;37974;53.218;6.640;2023-04-28T00:53:12;9.75;;;7.90;;
51949;SDS011;37974;53.218;6.640;2023-04-28T00:55:39;13.60;;;8.20;;
51949;SDS011;37974;53.218;6.640;2023-04-28T00:58:05;18.13;;;7.93;;
51949;SDS011;37974;53.218;6.640;2023-04-28T01:00:31;10.63;;;7.95;;
51949;SDS011;37974;53.218;6.640;2023-04-28T01:02:57;12.02;;;7.80;;
51949;SDS011;37974;53.218;6.640;2023-04-28T01:05:24;11.20;;;7.70;;
51949;SDS011;37974;53.218;6.640;2023-04-28T01:07:50;11.15;;;7.57;;
51949;SDS011;37974;53.218;6.640;2023-04-28T01:10:16;10.38;;;7.63;;
51949;SDS011;37974;53.218;6.640;2023-04-28T01:12:43;12.38;;;7.63;;
51949;SDS011;37974;53.218;6.640;2023-04-28T01:15:11;18.50;;;7.68;;
51949;SDS011;37974;53.218;6.640;2023-04-28T01:17:41;13.70;;;7.90;;
51949;SDS011;37974;53.218;6.640;2023-04-28T01:20:07;10.77;;;7.75;;
51949;SDS011;37974;53.218;6.640;2023-04-28T01:22:33;10.52;;;7.82;;
51949;SDS011;37974;53.218;6.640;2023-04-28T01:24:59;14.05;;;8.05;;
51949;SDS011;37974;53.218;6.640;2023-04-28T01:27:25;13.93;;;8.63;;
51949;SDS011;37974;53.218;6.640;2023-04-28T01:29:51;10.13;;;7.80;;
51949;SDS011;37974;53.218;6.640;2023-04-28T01:32:16;11.90;;;8.23;;
51949;SDS011;37974;53.218;6.640;2023-04-28T01:34:42;12.02;;;7.80;;
51949;SDS011;37974;53.218;6.640;2023-04-28T01:37:08;11.65;;;8.38;;
51949;SDS011;37974;53.218;6.640;2023-04-28T01:39:33;12.85;;;8.48;;
51949;SDS011;37974;53.218;6.640;2023-04-28T01:42:00;13.55;;;8.30;;
51949;SDS011;37974;53.218;6.640;2023-04-28T01:44:26;13.18;;;8.88;;
51949;SDS011;37974;53.218;6.640;2023-04-28T01:46:52;13.57;;;8.20;;
51949;SDS011;37974;53.218;6.640;2023-04-28T01:49:17;15.70;;;8.55;;
51949;SDS011;37974;53.218;6.640;2023-04-28T01:51:44;12.52;;;8.48;;
51949;SDS011;37974;53.218;6.640;2023-04-28T01:54:09;14.07;;;8.80;;
51949;SDS011;37974;53.218;6.640;2023-04-28T01:56:35;14.98;;;9.05;;
51949;SDS011;37974;53.218;6.640;2023-04-28T01:59:01;13.07;;;8.88;;
51949;SDS011;37974;53.218;6.640;2023-04-28T02:01:27;11.77;;;7.93;;
51949;SDS011;37974;53.218;6.640;2023-04-28T02:03:52;14.80;;;8.80;;
51949;SDS011;37974;53.218;6.640;2023-04-28T02:06:19;12.85;;;8.85;;
51949;SDS011;37974;53.218;6.640;2023-04-28T02:08:45;13.32;;;9.30;;
51949;SDS011;37974;53.218;6.640;2023-04-28T02:11:11;14.35;;;9.73;;
51949;SDS011;37974;53.218;6.640;2023-04-28T02:13:36;20.83;;;10.32;;
51949;SDS011;37974;53.218;6.640;2023-04-28T02:16:02;13.93;;;9.93;;
51949;SDS011;37974;53.218;6.640;2023-04-28T02:18:28;16.73;;;10.27;;
51949;SDS011;37974;53.218;6.640;2023-04-28T02:20:54;17.38;;;11.23;;
51949;SDS011;37974;53.218;6.640;2023-04-28T02:23:20;17.75;;;11.27;;
51949;SDS011;37974;53.218;6.640;2023-04-28T02:25:45;17.25;;;11.88;;
51949;SDS011;37974;53.218;6.640;2023-04-28T02:28:11;20.55;;;12.55;;
51949;SDS011;37974;53.218;6.640;2023-04-28T02:30:37;18.67;;;12.07;;
51949;SDS011;37974;53.218;6.640;2023-04-28T02:33:02;21.67;;;13.10;;
51949;SDS011;37974;53.218;6.640;2023-04-28T02:35:28;19.33;;;13.25;;
51949;SDS011;37974;53.218;6.640;2023-04-28T02:37:54;20.13;;;12.98;;
51949;SDS011;37974;53.218;6.640;2023-04-28T02:40:19;18.20;;;13.27;;
51949;SDS011;37974;53.218;6.640;2023-04-28T02:42:45;23.23;;;13.05;;
51949;SDS011;37974;53.218;6.640;2023-04-28T02:45:11;23.33;;;14.43;;
51949;SDS011;37974;53.218;6.640;2023-04-28T02:47:37;20.85;;;14.40;;
51949;SDS011;37974;53.218;6.640;2023-04-28T02:50:02;20.73;;;13.60;;
51949;SDS011;37974;53.218;6.640;2023-04-28T02:52:28;18.95;;;13.88;;
51949;SDS011;37974;53.218;6.640;2023-04-28T02:54:54;22.48;;;14.65;;
51949;SDS011;37974;53.218;6.640;2023-04-28T02:57:21;19.33;;;14.30;;
51949;SDS011;37974;53.218;6.640;2023-04-28T02:59:47;18.90;;;14.45;;
51949;SDS011;37974;53.218;6.640;2023-04-28T03:02:13;24.95;;;15.43;;
51949;SDS011;37974;53.218;6.640;2023-04-28T03:04:39;22.90;;;14.80;;
51949;SDS011;37974;53.218;6.640;2023-04-28T03:07:05;23.27;;;14.60;;
51949;SDS011;37974;53.218;6.640;2023-04-28T03:09:31;24.33;;;16.08;;
51949;SDS011;37974;53.218;6.640;2023-04-28T03:11:57;26.17;;;16.92;;
51949;SDS011;37974;53.218;6.640;2023-04-28T03:14:22;24.48;;;16.17;;
51949;SDS011;37974;53.218;6.640;2023-04-28T03:16:48;25.65;;;17.40;;
51949;SDS011;37974;53.218;6.640;2023-04-28T03:19:14;27.30;;;16.33;;
51949;SDS011;37974;53.218;6.640;2023-04-28T03:21:40;27.35;;;17.30;;
51949;SDS011;37974;53.218;6.640;2023-04-28T03:24:06;22.95;;;17.35;;
51949;SDS011;37974;53.218;6.640;2023-04-28T03:26:31;25.92;;;17.52;;
51949;SDS011;37974;53.218;6.640;2023-04-28T03:28:58;25.77;;;17.63;;
51949;SDS011;37974;53.218;6.640;2023-04-28T03:31:24;25.42;;;16.92;;
51949;SDS011;37974;53.218;6.640;2023-04-28T03:33:49;25.92;;;17.80;;
51949;SDS011;37974;53.218;6.640;2023-04-28T03:36:15;26.80;;;17.30;;
51949;SDS011;37974;53.218;6.640;2023-04-28T03:38:42;26.40;;;17.27;;
51949;SDS011;37974;53.218;6.640;2023-04-28T03:41:08;24.13;;;15.85;;
51949;SDS011;37974;53.218;6.640;2023-04-28T03:43:33;24.23;;;17.70;;
51949;SDS011;37974;53.218;6.640;2023-04-28T03:46:01;26.55;;;16.95;;
51949;SDS011;37974;53.218;6.640;2023-04-28T03:48:28;32.25;;;17.30;;
51949;SDS011;37974;53.218;6.640;2023-04-28T03:50:54;26.08;;;17.17;;
51949;SDS011;37974;53.218;6.640;2023-04-28T03:53:20;30.00;;;16.60;;
51949;SDS011;37974;53.218;6.640;2023-04-28T03:55:45;24.42;;;15.95;;
51949;SDS011;37974;53.218;6.640;2023-04-28T03:58:11;24.63;;;17.15;;
51949;SDS011;37974;53.218;6.640;2023-04-28T04:00:37;27.33;;;17.25;;
51949;SDS011;37974;53.218;6.640;2023-04-28T04:03:03;23.48;;;16.77;;
51949;SDS011;37974;53.218;6.640;2023-04-28T04:05:28;27.52;;;17.02;;
51949;SDS011;37974;53.218;6.640;2023-04-28T04:07:54;27.83;;;17.48;;
51949;SDS011;37974;53.218;6.640;2023-04-28T04:10:20;25.05;;;16.63;;
51949;SDS011;37974;53.218;6.640;2023-04-28T04:12:45;24.40;;;16.65;;
51949;SDS011;37974;53.218;6.640;2023-04-28T04:15:11;28.55;;;17.10;;
51949;SDS011;37974;53.218;6.640;2023-04-28T04:17:37;24.77;;;16.65;;
51949;SDS011;37974;53.218;6.640;2023-04-28T04:20:03;23.30;;;16.65;;
51949;SDS011;37974;53.218;6.640;2023-04-28T04:22:29;24.67;;;17.17;;
51949;SDS011;37974;53.218;6.640;2023-04-28T04:24:55;23.48;;;16.70;;
51949;SDS011;37974;53.218;6.640;2023-04-28T04:27:21;24.50;;;17.10;;
51949;SDS011;37974;53.218;6.640;2023-04-28T04:29:46;24.75;;;16.00;;
51949;SDS011;37974;53.218;6.640;2023-04-28T04:32:12;22.48;;;15.88;;
51949;SDS011;37974;53.218;6.640;2023-04-28T04:34:38;22.83;;;16.00;;
51949;SDS011;37974;53.218;6.640;2023-04-28T04:37:03;28.13;;;17.40;;
51949;SDS011;37974;53.218;6.640;2023-04-28T04:39:29;24.10;;;16.83;;
51949;SDS011;37974;53.218;6.640;2023-04-28T04:41:55;24.08;;;16.23;;
51949;SDS011;37974;53.218;6.640;2023-04-28T04:44:21;27.95;;;16.42;;
51949;SDS011;37974;53.218;6.640;2023-04-28T04:46:47;25.73;;;16.45;;
51949;SDS011;37974;53.218;6.640;2023-04-28T04:49:13;24.45;;;16.45;;
51949;SDS011;37974;53.218;6.640;2023-04-28T04:51:38;23.33;;;15.93;;
51949;SDS011;37974;53.218;6.640;2023-04-28T04:54:04;25.02;;;17.15;;
51949;SDS011;37974;53.218;6.640;2023-04-28T04:56:30;26.30;;;16.83;;
51949;SDS011;37974;53.218;6.640;2023-04-28T04:58:56;26.40;;;16.50;;
51949;SDS011;37974;53.218;6.640;2023-04-28T05:01:21;24.60;;;15.43;;
51949;SDS011;37974;53.218;6.640;2023-04-28T05:03:47;21.45;;;15.45;;
51949;SDS011;37974;53.218;6.640;2023-04-28T05:06:13;23.77;;;15.73;;
51949;SDS011;37974;53.218;6.640;2023-04-28T05:08:38;22.70;;;15.52;;
51949;SDS011;37974;53.218;6.640;2023-04-28T05:11:04;21.08;;;14.93;;
51949;SDS011;37974;53.218;6.640;2023-04-28T05:13:30;20.20;;;14.63;;
51949;SDS011;37974;53.218;6.640;2023-04-28T05:15:56;26.20;;;15.70;;
51949;SDS011;37974;53.218;6.640;2023-04-28T05:18:21;23.80;;;15.48;;
51949;SDS011;37974;53.218;6.640;2023-04-28T05:20:47;24.23;;;13.68;;
51949;SDS011;37974;53.218;6.640;2023-04-28T05:23:13;22.65;;;14.45;;
51949;SDS011;37974;53.218;6.640;2023-04-28T05:25:38;22.42;;;13.68;;
51949;SDS011;37974;53.218;6.640;2023-04-28T05:28:07;21.10;;;13.82;;
51949;SDS011;37974;53.218;6.640;2023-04-28T05:30:33;19.58;;;14.02;;
51949;SDS011;37974;53.218;6.640;2023-04-28T05:32:59;20.88;;;13.32;;
51949;SDS011;37974;53.218;6.640;2023-04-28T05:35:25;18.10;;;12.63;;
51949;SDS011;37974;53.218;6.640;2023-04-28T05:37:51;20.90;;;13.20;;
51949;SDS011;37974;53.218;6.640;2023-04-28T05:40:17;18.25;;;12.77;;
51949;SDS011;37974;53.218;6.640;2023-04-28T05:42:43;18.15;;;12.18;;
51949;SDS011;37974;53.218;6.640;2023-04-28T05:45:09;17.27;;;13.05;;
51949;SDS011;37974;53.218;6.640;2023-04-28T05:47:35;15.05;;;11.52;;
51949;SDS011;37974;53.218;6.640;2023-04-28T05:50:01;19.48;;;11.27;;
51949;SDS011;37974;53.218;6.640;2023-04-28T05:52:27;17.45;;;11.90;;
51949;SDS011;37974;53.218;6.640;2023-04-28T05:54:53;18.33;;;12.82;;
51949;SDS011;37974;53.218;6.640;2023-04-28T05:57:18;28.42;;;11.98;;
51949;SDS011;37974;53.218;6.640;2023-04-28T05:59:44;21.50;;;11.57;;
51949;SDS011;37974;53.218;6.640;2023-04-28T06:02:11;21.80;;;11.77;;
51949;SDS011;37974;53.218;6.640;2023-04-28T06:04:37;17.10;;;11.93;;
51949;SDS011;37974;53.218;6.640;2023-04-28T06:07:03;16.55;;;12.40;;
51949;SDS011;37974;53.218;6.640;2023-04-28T06:09:29;18.27;;;11.93;;
51949;SDS011;37974;53.218;6.640;2023-04-28T06:11:55;17.90;;;11.02;;
51949;SDS011;37974;53.218;6.640;2023-04-28T06:14:21;17.67;;;11.35;;
51949;SDS011;37974;53.218;6.640;2023-04-28T06:16:47;16.70;;;11.75;;
51949;SDS011;37974;53.218;6.640;2023-04-28T06:19:13;15.00;;;10.98;;
51949;SDS011;37974;53.218;6.640;2023-04-28T06:21:40;17.67;;;10.98;;
51949;SDS011;37974;53.218;6.640;2023-04-28T06:24:05;18.92;;;11.35;;
51949;SDS011;37974;53.218;6.640;2023-04-28T06:26:31;15.45;;;11.15;;
51949;SDS011;37974;53.218;6.640;2023-04-28T06:28:57;15.15;;;10.90;;
51949;SDS011;37974;53.218;6.640;2023-04-28T06:31:23;18.83;;;11.93;;
51949;SDS011;37974;53.218;6.640;2023-04-28T06:33:48;20.50;;;11.20;;
51949;SDS011;37974;53.218;6.640;2023-04-28T06:36:14;15.57;;;11.00;;
51949;SDS011;37974;53.218;6.640;2023-04-28T06:38:42;17.13;;;11.02;;
51949;SDS011;37974;53.218;6.640;2023-04-28T06:41:09;20.00;;;11.73;;
51949;SDS011;37974;53.218;6.640;2023-04-28T06:43:38;18.27;;;10.70;;
51949;SDS011;37974;53.218;6.640;2023-04-28T06:46:04;18.55;;;12.13;;
51949;SDS011;37974;53.218;6.640;2023-04-28T06:48:30;20.48;;;11.25;;
51949;SDS011;37974;53.218;6.640;2023-04-28T06:50:56;15.82;;;11.30;;
51949;SDS011;37974;53.218;6.640;2023-04-28T06:53:21;19.67;;;12.00;;
51949;SDS011;37974;53.218;6.640;2023-04-28T06:55:47;18.13;;;11.25;;
51949;SDS011;37974;53.218;6.640;2023-04-28T06:58:13;18.58;;;11.23;;
51949;SDS011;37974;53.218;6.640;2023-04-28T07:00:39;18.83;;;11.98;;
51949;SDS011;37974;53.218;6.640;2023-04-28T07:03:05;17.10;;;10.73;;
51949;SDS011;37974;53.218;6.640;2023-04-28T07:05:31;17.15;;;10.95;;
51949;SDS011;37974;53.218;6.640;2023-04-28T07:07:58;18.88;;;11.48;;
51949;SDS011;37974;53.218;6.640;2023-04-28T07:10:23;16.08;;;11.18;;
51949;SDS011;37974;53.218;6.640;2023-04-28T07:12:49;16.83;;;11.50;;
51949;SDS011;37974;53.218;6.640;2023-04-28T07:15:16;17.70;;;11.55;;
51949;SDS011;37974;53.218;6.640;2023-04-28T07:17:42;18.55;;;11.27;;
51949;SDS011;37974;53.218;6.640;2023-04-28T07:20:08;17.77;;;11.25;;
51949;SDS011;37974;53.218;6.640;2023-04-28T07:30:24;25.38;;;11.27;;
51949;SDS011;37974;53.218;6.640;2023-04-28T07:36:41;18.52;;;10.38;;
51949;SDS011;37974;53.218;6.640;2023-04-28T07:39:47;17.17;;;9.98;;
51949;SDS011;37974;53.218;6.640;2023-04-28T07:42:21;17.92;;;10.32;;
51949;SDS011;37974;53.218;6.640;2023-04-28T07:44:49;15.02;;;10.23;;
51949;SDS011;37974;53.218;6.640;2023-04-28T07:47:17;15.80;;;10.55;;
51949;SDS011;37974;53.218;6.640;2023-04-28T07:49:43;20.00;;;11.73;;
51949;SDS011;37974;53.218;6.640;2023-04-28T07:52:08;20.60;;;10.38;;
51949;SDS011;37974;53.218;6.640;2023-04-28T07:54:35;16.88;;;10.48;;
51949;SDS011;37974;53.218;6.640;2023-04-28T07:57:01;15.15;;;10.85;;
51949;SDS011;37974;53.218;6.640;2023-04-28T07:59:30;17.42;;;10.60;;
51949;SDS011;37974;53.218;6.640;2023-04-28T08:02:01;18.33;;;10.23;;
51949;SDS011;37974;53.218;6.640;2023-04-28T08:04:38;18.55;;;10.52;;
51949;SDS011;37974;53.218;6.640;2023-04-28T08:07:04;15.30;;;10.85;;
51949;SDS011;37974;53.218;6.640;2023-04-28T08:09:30;19.27;;;11.25;;
51949;SDS011;37974;53.218;6.640;2023-04-28T08:12:31;16.48;;;10.85;;
51949;SDS011;37974;53.218;6.640;2023-04-28T08:15:02;17.77;;;11.10;;
51949;SDS011;37974;53.218;6.640;2023-04-28T08:17:39;16.35;;;10.00;;
51949;SDS011;37974;53.218;6.640;2023-04-28T08:20:27;18.90;;;10.70;;
51949;SDS011;37974;53.218;6.640;2023-04-28T08:35:03;18.80;;;10.82;;
51949;SDS011;37974;53.218;6.640;2023-04-28T08:37:34;15.60;;;10.30;;
51949;SDS011;37974;53.218;6.640;2023-04-28T08:40:01;19.40;;;12.10;;
51949;SDS011;37974;53.218;6.640;2023-04-28T09:17:21;16.70;;;10.30;;
51949;SDS011;37974;53.218;6.640;2023-04-28T09:22:43;15.43;;;9.98;;
51949;SDS011;37974;53.218;6.640;2023-04-28T09:25:09;13.85;;;9.43;;
51949;SDS011;37974;53.218;6.640;2023-04-28T09:27:46;14.20;;;10.07;;
51949;SDS011;37974;53.218;6.640;2023-04-28T09:30:31;16.20;;;10.20;;
51949;SDS011;37974;53.218;6.640;2023-04-28T09:33:04;14.48;;;10.15;;
51949;SDS011;37974;53.218;6.640;2023-04-28T09:35:46;14.02;;;10.32;;
51949;SDS011;37974;53.218;6.640;2023-04-28T09:38:13;14.45;;;9.98;;
51949;SDS011;37974;53.218;6.640;2023-04-28T09:41:02;14.73;;;10.05;;
51949;SDS011;37974;53.218;6.640;2023-04-28T09:53:59;23.55;;;10.38;;
51949;SDS011;37974;53.218;6.640;2023-04-28T10:04:37;15.32;;;10.13;;
51949;SDS011;37974;53.218;6.640;2023-04-28T10:07:40;18.00;;;9.55;;
51949;SDS011;37974;53.218;6.640;2023-04-28T10:10:09;17.90;;;9.05;;
51949;SDS011;37974;53.218;6.640;2023-04-28T10:12:38;20.60;;;9.45;;
51949;SDS011;37974;53.218;6.640;2023-04-28T10:15:06;14.50;;;8.70;;
51949;SDS011;37974;53.218;6.640;2023-04-28T10:17:33;15.70;;;9.32;;
51949;SDS011;37974;53.218;6.640;2023-04-28T10:20:01;17.05;;;8.93;;
51949;SDS011;37974;53.218;6.640;2023-04-28T10:22:58;15.02;;;9.32;;
51949;SDS011;37974;53.218;6.640;2023-04-28T10:25:41;13.63;;;8.43;;
51949;SDS011;37974;53.218;6.640;2023-04-28T10:28:12;16.17;;;9.45;;
51949;SDS011;37974;53.218;6.640;2023-04-28T10:30:38;12.18;;;8.95;;
51949;SDS011;37974;53.218;6.640;2023-04-28T10:38:06;14.38;;;8.27;;
51949;SDS011;37974;53.218;6.640;2023-04-28T10:43:08;19.05;;;8.93;;
51949;SDS011;37974;53.218;6.640;2023-04-28T10:57:15;12.18;;;8.63;;
51949;SDS011;37974;53.218;6.640;2023-04-28T10:59:42;19.00;;;9.25;;
51949;SDS011;37974;53.218;6.640;2023-04-28T11:02:34;16.80;;;8.13;;
51949;SDS011;37974;53.218;6.640;2023-04-28T11:11:12;12.93;;;9.07;;
51949;SDS011;37974;53.218;6.640;2023-04-28T11:21:37;17.70;;;9.90;;
51949;SDS011;37974;53.218;6.640;2023-04-28T11:24:57;15.63;;;9.70;;
51949;SDS011;37974;53.218;6.640;2023-04-28T11:53:17;16.10;;;10.75;;
51949;SDS011;37974;53.218;6.640;2023-04-28T11:55:43;16.23;;;10.85;;
51949;SDS011;37974;53.218;6.640;2023-04-28T11:58:43;13.63;;;11.48;;
51949;SDS011;37974;53.218;6.640;2023-04-28T12:01:05;18.25;;;9.98;;
51949;SDS011;37974;53.218;6.640;2023-04-28T12:03:43;16.95;;;9.98;;
51949;SDS011;37974;53.218;6.640;2023-04-28T12:06:16;16.52;;;10.50;;
51949;SDS011;37974;53.218;6.640;2023-04-28T12:08:43;13.88;;;10.40;;
51949;SDS011;37974;53.218;6.640;2023-04-28T12:11:28;21.05;;;11.18;;
51949;SDS011;37974;53.218;6.640;2023-04-28T12:14:15;14.48;;;10.40;;
51949;SDS011;37974;53.218;6.640;2023-04-28T12:16:55;18.15;;;10.60;;
51949;SDS011;37974;53.218;6.640;2023-04-28T12:19:24;12.38;;;9.98;;
51949;SDS011;37974;53.218;6.640;2023-04-28T12:21:59;14.43;;;10.23;;
51949;SDS011;37974;53.218;6.640;2023-04-28T12:24:29;14.65;;;9.23;;
51949;SDS011;37974;53.218;6.640;2023-04-28T12:27:16;14.63;;;10.73;;
51949;SDS011;37974;53.218;6.640;2023-04-28T12:32:58;14.38;;;10.40;;
51949;SDS011;37974;53.218;6.640;2023-04-28T12:35:28;18.25;;;10.55;;
51949;SDS011;37974;53.218;6.640;2023-04-28T12:37:54;15.55;;;10.25;;
51949;SDS011;37974;53.218;6.640;2023-04-28T12:40:22;21.38;;;10.40;;
51949;SDS011;37974;53.218;6.640;2023-04-28T12:43:17;14.05;;;10.02;;
51949;SDS011;37974;53.218;6.640;2023-04-28T12:46:02;13.77;;;10.35;;
51949;SDS011;37974;53.218;6.640;2023-04-28T12:48:57;16.50;;;9.90;;
51949;SDS011;37974;53.218;6.640;2023-04-28T12:52:03;15.70;;;10.70;;
51949;SDS011;37974;53.218;6.640;2023-04-28T12:55:05;17.38;;;11.23;;
51949;SDS011;37974;53.218;6.640;2023-04-28T12:58:08;15.57;;;10.43;;
51949;SDS011;37974;53.218;6.640;2023-04-28T13:00:59;16.52;;;11.07;;
51949;SDS011;37974;53.218;6.640;2023-04-28T13:03:31;17.33;;;11.35;;
51949;SDS011;37974;53.218;6.640;2023-04-28T13:06:02;15.00;;;11.35;;
51949;SDS011;37974;53.218;6.640;2023-04-28T13:08:28;16.45;;;11.95;;
51949;SDS011;37974;53.218;6.640;2023-04-28T13:11:03;18.00;;;12.50;;
51949;SDS011;37974;53.218;6.640;2023-04-28T13:13:29;18.20;;;12.73;;
51949;SDS011;37974;53.218;6.640;2023-04-28T13:15:55;20.52;;;12.57;;
51949;SDS011;37974;53.218;6.640;2023-04-28T13:18:24;22.05;;;12.10;;
51949;SDS011;37974;53.218;6.640;2023-04-28T13:20:50;22.17;;;13.40;;
51949;SDS011;37974;53.218;6.640;2023-04-28T13:23:19;17.60;;;12.10;;
51949;SDS011;37974;53.218;6.640;2023-04-28T13:25:49;15.52;;;11.45;;
51949;SDS011;37974;53.218;6.640;2023-04-28T13:28:19;15.57;;;11.77;;
51949;SDS011;37974;53.218;6.640;2023-04-28T13:31:14;18.23;;;13.20;;
51949;SDS011;37974;53.218;6.640;2023-04-28T13:33:40;16.88;;;12.90;;
51949;SDS011;37974;53.218;6.640;2023-04-28T13:36:06;15.23;;;12.18;;
51949;SDS011;37974;53.218;6.640;2023-04-28T13:38:52;18.27;;;12.10;;
51949;SDS011;37974;53.218;6.640;2023-04-28T13:41:23;16.42;;;12.20;;
51949;SDS011;37974;53.218;6.640;2023-04-28T13:43:50;21.77;;;12.27;;
51949;SDS011;37974;53.218;6.640;2023-04-28T13:46:19;17.42;;;10.95;;
51949;SDS011;37974;53.218;6.640;2023-04-28T13:48:45;16.52;;;11.18;;
51949;SDS011;37974;53.218;6.640;2023-04-28T13:51:18;17.33;;;12.05;;
51949;SDS011;37974;53.218;6.640;2023-04-28T13:53:45;14.85;;;12.10;;
51949;SDS011;37974;53.218;6.640;2023-04-28T13:56:18;21.08;;;12.80;;
51949;SDS011;37974;53.218;6.640;2023-04-28T13:58:44;18.85;;;12.98;;
51949;SDS011;37974;53.218;6.640;2023-04-28T14:01:09;18.08;;;12.77;;
51949;SDS011;37974;53.218;6.640;2023-04-28T14:03:35;18.90;;;13.00;;
51949;SDS011;37974;53.218;6.640;2023-04-28T14:06:01;15.75;;;13.23;;
51949;SDS011;37974;53.218;6.640;2023-04-28T14:08:27;19.15;;;13.52;;
51949;SDS011;37974;53.218;6.640;2023-04-28T14:10:53;21.60;;;13.85;;
51949;SDS011;37974;53.218;6.640;2023-04-28T14:13:19;20.05;;;14.68;;
51949;SDS011;37974;53.218;6.640;2023-04-28T14:15:45;18.92;;;13.77;;
51949;SDS011;37974;53.218;6.640;2023-04-28T14:18:11;19.65;;;14.35;;
51949;SDS011;37974;53.218;6.640;2023-04-28T14:20:38;21.60;;;15.80;;
51949;SDS011;37974;53.218;6.640;2023-04-28T14:23:04;18.48;;;14.98;;
51949;SDS011;37974;53.218;6.640;2023-04-28T14:25:30;22.60;;;15.77;;
51949;SDS011;37974;53.218;6.640;2023-04-28T14:27:55;20.95;;;15.48;;
51949;SDS011;37974;53.218;6.640;2023-04-28T14:30:22;20.45;;;16.25;;
51949;SDS011;37974;53.218;6.640;2023-04-28T14:32:50;22.10;;;16.30;;
51949;SDS011;37974;53.218;6.640;2023-04-28T14:35:15;20.73;;;15.52;;
51949;SDS011;37974;53.218;6.640;2023-04-28T14:37:42;19.67;;;16.55;;
51949;SDS011;37974;53.218;6.640;2023-04-28T14:40:08;24.48;;;16.95;;
51949;SDS011;37974;53.218;6.640;2023-04-28T14:42:35;23.83;;;17.85;;
51949;SDS011;37974;53.218;6.640;2023-04-28T14:45:02;24.63;;;17.45;;
51949;SDS011;37974;53.218;6.640;2023-04-28T14:47:29;26.25;;;18.33;;
51949;SDS011;37974;53.218;6.640;2023-04-28T14:49:55;22.63;;;17.92;;
51949;SDS011;37974;53.218;6.640;2023-04-28T14:52:22;26.23;;;18.85;;
51949;SDS011;37974;53.218;6.640;2023-04-28T14:54:49;25.30;;;18.15;;
51949;SDS011;37974;53.218;6.640;2023-04-28T14:57:24;21.73;;;18.52;;
51949;SDS011;37974;53.218;6.640;2023-04-28T14:59:51;26.30;;;20.10;;
51949;SDS011;37974;53.218;6.640;2023-04-28T15:02:18;29.25;;;19.75;;
51949;SDS011;37974;53.218;6.640;2023-04-28T15:04:58;26.52;;;19.17;;
51949;SDS011;37974;53.218;6.640;2023-04-28T15:07:24;26.77;;;20.73;;
51949;SDS011;37974;53.218;6.640;2023-04-28T15:09:55;26.50;;;19.30;;
51949;SDS011;37974;53.218;6.640;2023-04-28T15:12:22;26.60;;;20.00;;
51949;SDS011;37974;53.218;6.640;2023-04-28T15:14:48;26.60;;;20.45;;
51949;SDS011;37974;53.218;6.640;2023-04-28T15:17:23;30.70;;;21.20;;
51949;SDS011;37974;53.218;6.640;2023-04-28T15:19:49;29.48;;;20.95;;
51949;SDS011;37974;53.218;6.640;2023-04-28T15:22:15;27.30;;;20.73;;
51949;SDS011;37974;53.218;6.640;2023-04-28T15:24:41;25.02;;;21.00;;
51949;SDS011;37974;53.218;6.640;2023-04-28T15:27:07;28.17;;;21.55;;
51949;SDS011;37974;53.218;6.640;2023-04-28T15:29:33;29.42;;;23.35;;
51949;SDS011;37974;53.218;6.640;2023-04-28T15:32:09;28.60;;;21.23;;
51949;SDS011;37974;53.218;6.640;2023-04-28T15:34:35;32.55;;;23.42;;
51949;SDS011;37974;53.218;6.640;2023-04-28T15:40:05;27.80;;;22.08;;
51949;SDS011;37974;53.218;6.640;2023-04-28T15:42:32;29.55;;;22.55;;
51949;SDS011;37974;53.218;6.640;2023-04-28T15:45:05;30.50;;;21.67;;
51949;SDS011;37974;53.218;6.640;2023-04-28T15:47:34;26.45;;;21.63;;
51949;SDS011;37974;53.218;6.640;2023-04-28T15:50:00;28.38;;;22.70;;
51949;SDS011;37974;53.218;6.640;2023-04-28T15:52:44;26.63;;;21.60;;
51949;SDS011;37974;53.218;6.640;2023-04-28T15:55:14;26.98;;;21.00;;
51949;SDS011;37974;53.218;6.640;2023-04-28T15:57:41;27.17;;;20.85;;
51949;SDS011;37974;53.218;6.640;2023-04-28T16:00:08;27.27;;;21.13;;
51949;SDS011;37974;53.218;6.640;2023-04-28T16:02:39;31.70;;;22.50;;
51949;SDS011;37974;53.218;6.640;2023-04-28T16:05:25;25.02;;;20.90;;
51949;SDS011;37974;53.218;6.640;2023-04-28T16:07:51;28.70;;;22.42;;
51949;SDS011;37974;53.218;6.640;2023-04-28T16:10:19;26.27;;;21.15;;
51949;SDS011;37974;53.218;6.640;2023-04-28T16:12:45;25.90;;;21.27;;
51949;SDS011;37974;53.218;6.640;2023-04-28T16:15:13;27.88;;;20.42;;
51949;SDS011;37974;53.218;6.640;2023-04-28T16:17:43;27.52;;;20.65;;
51949;SDS011;37974;53.218;6.640;2023-04-28T16:20:18;26.00;;;21.25;;
51949;SDS011;37974;53.218;6.640;2023-04-28T16:22:44;29.98;;;21.15;;
51949;SDS011;37974;53.218;6.640;2023-04-28T16:25:10;25.73;;;20.85;;
51949;SDS011;37974;53.218;6.640;2023-04-28T16:27:37;28.83;;;20.83;;
51949;SDS011;37974;53.218;6.640;2023-04-28T16:30:04;25.40;;;20.77;;
51949;SDS011;37974;53.218;6.640;2023-04-28T16:32:56;28.10;;;21.40;;
51949;SDS011;37974;53.218;6.640;2023-04-28T16:35:23;26.55;;;20.80;;
51949;SDS011;37974;53.218;6.640;2023-04-28T16:37:49;26.45;;;21.85;;
51949;SDS011;37974;53.218;6.640;2023-04-28T16:40:15;25.70;;;22.33;;
51949;SDS011;37974;53.218;6.640;2023-04-28T16:42:42;27.85;;;22.75;;
51949;SDS011;37974;53.218;6.640;2023-04-28T16:45:12;29.63;;;22.83;;
51949;SDS011;37974;53.218;6.640;2023-04-28T16:47:40;26.33;;;21.48;;
51949;SDS011;37974;53.218;6.640;2023-04-28T16:50:09;28.48;;;21.95;;
51949;SDS011;37974;53.218;6.640;2023-04-28T16:52:35;26.52;;;21.92;;
51949;SDS011;37974;53.218;6.640;2023-04-28T16:55:02;30.83;;;23.25;;
51949;SDS011;37974;53.218;6.640;2023-04-28T17:00:37;28.92;;;22.08;;
51949;SDS011;37974;53.218;6.640;2023-04-28T17:03:04;27.30;;;22.70;;